createdAt,value
2017-03-23T00:00:57.840Z,19.23
2017-03-23T00:02:03.422Z,18.68
2017-03-23T00:03:09.922Z,20.60
2017-03-23T00:04:15.496Z,20.18
2017-03-23T00:05:20.940Z,19.80
2017-03-23T00:06:25.685Z,22.27
2017-03-23T00:07:31.241Z,19.67
2017-03-23T00:08:36.783Z,21.12
2017-03-23T00:09:42.348Z,20.62
2017-03-23T00:10:47.153Z,20.13
2017-03-23T00:11:52.761Z,18.88
2017-03-23T00:12:58.361Z,19.22
2017-03-23T00:14:05.737Z,18.65
2017-03-23T00:15:10.578Z,19.77
2017-03-23T00:16:16.952Z,20.30
2017-03-23T00:17:22.596Z,18.90
2017-03-23T00:18:27.340Z,19.87
2017-03-23T00:19:33.852Z,20.82
2017-03-23T00:20:38.593Z,19.58
2017-03-23T00:21:44.112Z,19.88
2017-03-23T00:22:50.352Z,21.18
2017-03-23T00:23:56.069Z,22.52
2017-03-23T00:25:02.616Z,19.87
2017-03-23T00:26:08.200Z,20.28
2017-03-23T00:27:14.209Z,21.67
2017-03-23T00:28:19.985Z,21.25
2017-03-23T00:29:25.584Z,22.70
2017-03-23T00:30:30.664Z,21.35
2017-03-23T00:31:36.105Z,20.98
2017-03-23T00:32:41.660Z,20.63
2017-03-23T00:33:48.024Z,21.75
2017-03-23T00:34:52.893Z,22.28
2017-03-23T00:35:58.549Z,21.75
2017-03-23T00:37:04.036Z,20.97
2017-03-23T00:38:10.345Z,21.05
2017-03-23T00:39:15.045Z,20.52
2017-03-23T00:40:21.576Z,18.48
2017-03-23T00:41:27.133Z,18.02
2017-03-23T00:42:31.921Z,17.92
2017-03-23T00:43:37.369Z,19.48
2017-03-23T00:44:43.700Z,18.62
2017-03-23T00:45:48.540Z,19.15
2017-03-23T00:46:54.233Z,20.80
2017-03-23T00:48:00.682Z,20.57
2017-03-23T00:49:05.360Z,20.37
2017-03-23T00:50:10.871Z,19.78
2017-03-23T00:51:15.573Z,19.37
2017-03-23T00:52:21.220Z,19.50
2017-03-23T00:53:26.779Z,18.42
2017-03-23T00:54:32.327Z,19.25
2017-03-23T00:55:38.676Z,19.83
2017-03-23T00:56:43.509Z,20.72
2017-03-23T00:57:49.906Z,21.00
2017-03-23T00:58:54.705Z,20.55
2017-03-23T01:00:01.187Z,20.47
2017-03-23T01:01:07.636Z,20.23
2017-03-23T01:02:12.495Z,20.30
2017-03-23T01:03:18.006Z,20.38
2017-03-23T01:04:22.761Z,20.78
2017-03-23T01:05:33.573Z,20.25
2017-03-23T01:06:44.076Z,20.07
2017-03-23T01:07:54.477Z,19.63
2017-03-23T01:09:05.127Z,19.32
2017-03-23T01:10:15.546Z,19.67
2017-03-23T01:11:27.044Z,19.12
2017-03-23T01:12:38.188Z,19.38
2017-03-23T01:13:49.829Z,19.55
2017-03-23T01:15:00.613Z,19.42
2017-03-23T01:16:11.145Z,20.53
2017-03-23T01:17:22.370Z,20.05
2017-03-23T01:18:29.269Z,20.30
2017-03-23T01:19:34.401Z,17.93
2017-03-23T01:20:40.714Z,18.52
2017-03-23T01:21:46.336Z,20.18
2017-03-23T01:22:51.088Z,19.57
2017-03-23T01:23:56.657Z,19.72
2017-03-23T01:25:01.439Z,18.50
2017-03-23T01:26:07.676Z,19.63
2017-03-23T01:27:14.266Z,20.17
2017-03-23T01:28:19.930Z,20.00
2017-03-23T01:29:25.504Z,18.50
2017-03-23T01:30:31.147Z,18.42
2017-03-23T01:31:36.986Z,19.08
2017-03-23T01:32:42.425Z,19.35
2017-03-23T01:33:48.038Z,18.55
2017-03-23T01:34:53.520Z,19.10
2017-03-23T01:35:58.180Z,19.02
2017-03-23T01:37:02.936Z,19.62
2017-03-23T01:38:08.574Z,18.47
2017-03-23T01:39:14.104Z,17.50
2017-03-23T01:40:18.809Z,18.82
2017-03-23T01:41:25.332Z,20.32
2017-03-23T01:42:30.059Z,19.47
2017-03-23T01:43:35.058Z,18.10
2017-03-23T01:44:41.242Z,18.72
2017-03-23T01:45:46.004Z,19.35
2017-03-23T01:46:51.592Z,17.77
2017-03-23T01:47:57.920Z,19.38
2017-03-23T01:49:02.744Z,18.65
2017-03-23T01:50:08.300Z,19.42
2017-03-23T01:51:14.742Z,19.95
2017-03-23T01:52:20.253Z,19.73
2017-03-23T01:53:25.109Z,18.05
2017-03-23T01:54:31.485Z,19.75
2017-03-23T01:55:36.412Z,19.25
2017-03-23T01:56:42.065Z,20.25
2017-03-23T01:57:47.678Z,20.20
2017-03-23T01:58:53.220Z,19.38
2017-03-23T01:59:58.823Z,19.45
2017-03-23T02:01:03.619Z,19.30
2017-03-23T02:02:10.120Z,19.93
2017-03-23T02:03:16.544Z,17.80
2017-03-23T02:04:21.340Z,17.95
2017-03-23T02:05:26.826Z,20.00
2017-03-23T02:06:32.501Z,18.77
2017-03-23T02:07:38.749Z,18.45
2017-03-23T02:08:43.683Z,19.30
2017-03-23T02:09:50.989Z,15.67
2017-03-23T02:10:56.621Z,18.72
2017-03-23T02:12:02.229Z,18.23
2017-03-23T02:13:07.816Z,19.40
2017-03-23T02:14:14.294Z,18.53
2017-03-23T02:15:19.960Z,18.48
2017-03-23T02:16:24.797Z,18.32
2017-03-23T02:17:31.628Z,18.58
2017-03-23T02:18:37.773Z,18.90
2017-03-23T02:19:43.562Z,18.17
2017-03-23T02:20:48.855Z,17.75
2017-03-23T02:21:55.081Z,17.50
2017-03-23T02:23:00.673Z,17.60
2017-03-23T02:24:05.438Z,19.02
2017-03-23T02:25:10.960Z,19.03
2017-03-23T02:26:15.685Z,19.62
2017-03-23T02:27:21.261Z,20.12
2017-03-23T02:28:27.722Z,19.75
2017-03-23T02:29:33.213Z,19.73
2017-03-23T02:30:38.426Z,19.75
2017-03-23T02:31:43.453Z,20.25
2017-03-23T02:32:48.980Z,19.50
2017-03-23T02:33:54.413Z,19.68
2017-03-23T02:35:00.057Z,19.70
2017-03-23T02:36:05.526Z,19.72
2017-03-23T02:37:10.413Z,19.90
2017-03-23T02:38:15.784Z,19.75
2017-03-23T02:39:22.072Z,19.25
2017-03-23T02:40:26.885Z,20.17
2017-03-23T02:41:32.605Z,20.20
2017-03-23T02:42:38.962Z,19.13
2017-03-23T02:43:43.822Z,18.90
2017-03-23T02:44:49.491Z,19.68
2017-03-23T02:45:55.100Z,20.18
2017-03-23T02:46:59.858Z,19.68
2017-03-23T02:48:06.206Z,19.48
2017-03-23T02:49:10.979Z,19.55
2017-03-23T02:50:17.343Z,19.72
2017-03-23T02:51:23.189Z,19.90
2017-03-23T02:52:28.799Z,19.02
2017-03-23T02:53:35.272Z,19.25
2017-03-23T02:54:40.031Z,20.50
2017-03-23T02:55:45.648Z,21.40
2017-03-23T02:56:51.194Z,18.85
2017-03-23T02:57:55.977Z,19.60
2017-03-23T02:59:01.532Z,20.98
2017-03-23T03:00:07.185Z,21.90
2017-03-23T03:01:13.561Z,19.87
2017-03-23T03:02:18.589Z,20.38
2017-03-23T03:03:24.285Z,21.17
2017-03-23T03:04:29.914Z,20.47
2017-03-23T03:05:34.560Z,21.00
2017-03-23T03:06:39.633Z,20.12
2017-03-23T03:07:45.124Z,20.93
2017-03-23T03:08:49.757Z,20.98
2017-03-23T03:09:56.081Z,21.27
2017-03-23T03:11:00.993Z,22.33
2017-03-23T03:12:06.617Z,21.20
2017-03-23T03:13:12.220Z,20.13
2017-03-23T03:14:17.886Z,20.47
2017-03-23T03:15:23.449Z,21.75
2017-03-23T03:16:29.486Z,21.35
2017-03-23T03:17:35.008Z,21.67
2017-03-23T03:18:39.940Z,21.05
2017-03-23T03:19:45.406Z,21.17
2017-03-23T03:20:50.978Z,21.85
2017-03-23T03:21:57.417Z,19.70
2017-03-23T03:23:02.357Z,18.10
2017-03-23T03:24:07.880Z,21.07
2017-03-23T03:25:12.634Z,20.73
2017-03-23T03:26:18.113Z,20.80
2017-03-23T03:27:24.518Z,18.92
2017-03-23T03:28:29.281Z,20.50
2017-03-23T03:29:34.785Z,22.02
2017-03-23T03:30:40.311Z,23.53
2017-03-23T03:31:46.009Z,21.58
2017-03-23T03:32:52.336Z,21.98
2017-03-23T03:33:57.964Z,22.35
2017-03-23T03:35:03.547Z,22.08
2017-03-23T03:36:09.096Z,19.95
2017-03-23T03:37:13.793Z,21.57
2017-03-23T03:38:20.148Z,20.62
2017-03-23T03:39:25.009Z,21.22
2017-03-23T03:40:30.655Z,22.30
2017-03-23T03:41:38.186Z,21.25
2017-03-23T03:42:43.907Z,20.43
2017-03-23T03:43:49.478Z,21.55
2017-03-23T03:44:55.146Z,22.60
2017-03-23T03:45:59.864Z,22.07
2017-03-23T03:47:06.265Z,19.98
2017-03-23T03:48:10.973Z,21.42
2017-03-23T03:49:17.211Z,21.28
2017-03-23T03:50:22.112Z,22.00
2017-03-23T03:51:27.637Z,21.93
2017-03-23T03:52:34.065Z,21.80
2017-03-23T03:53:39.556Z,21.90
2017-03-23T03:54:44.340Z,22.67
2017-03-23T03:55:48.971Z,22.70
2017-03-23T03:56:53.774Z,24.35
2017-03-23T03:57:59.262Z,22.55
2017-03-23T03:59:05.812Z,22.97
2017-03-23T04:00:11.310Z,24.35
2017-03-23T04:01:17.028Z,23.82
2017-03-23T04:02:21.792Z,21.35
2017-03-23T04:03:28.124Z,22.68
2017-03-23T04:04:33.666Z,23.82
2017-03-23T04:05:38.374Z,22.68
2017-03-23T04:06:44.843Z,24.25
2017-03-23T04:07:50.537Z,24.02
2017-03-23T04:08:55.988Z,23.95
2017-03-23T04:10:01.520Z,24.62
2017-03-23T04:11:07.161Z,23.42
2017-03-23T04:12:13.696Z,24.67
2017-03-23T04:13:19.259Z,23.73
2017-03-23T04:14:25.053Z,23.47
2017-03-23T04:15:29.706Z,22.85
2017-03-23T04:16:35.225Z,23.98
2017-03-23T04:17:40.017Z,22.58
2017-03-23T04:18:45.581Z,22.45
2017-03-23T04:19:51.140Z,21.33
2017-03-23T04:20:56.726Z,20.65
2017-03-23T04:22:02.338Z,23.13
2017-03-23T04:23:08.624Z,23.03
2017-03-23T04:24:14.177Z,22.60
2017-03-23T04:25:19.684Z,25.03
2017-03-23T04:26:25.357Z,24.13
2017-03-23T04:27:30.982Z,23.33
2017-03-23T04:28:35.879Z,24.48
2017-03-23T04:29:41.544Z,22.33
2017-03-23T04:30:47.820Z,23.40
2017-03-23T04:31:52.712Z,22.85
2017-03-23T04:32:58.103Z,22.97
2017-03-23T04:34:03.147Z,24.42
2017-03-23T04:35:09.504Z,22.05
2017-03-23T04:36:14.448Z,24.58
2017-03-23T04:37:20.017Z,23.12
2017-03-23T04:38:25.576Z,22.72
2017-03-23T04:39:31.244Z,23.90
2017-03-23T04:40:35.881Z,21.32
2017-03-23T04:41:42.356Z,21.98
2017-03-23T04:42:47.180Z,21.70
2017-03-23T04:43:52.785Z,22.48
2017-03-23T04:44:58.437Z,22.05
2017-03-23T04:46:04.070Z,22.78
2017-03-23T04:47:10.414Z,22.05
2017-03-23T04:48:15.410Z,23.33
2017-03-23T04:49:20.868Z,25.02
2017-03-23T04:50:27.244Z,23.93
2017-03-23T04:51:32.001Z,23.23
2017-03-23T04:52:38.180Z,22.97
2017-03-23T04:53:42.906Z,23.43
2017-03-23T04:54:48.365Z,22.52
2017-03-23T04:55:53.088Z,22.57
2017-03-23T04:56:58.680Z,23.72
2017-03-23T04:58:04.288Z,24.50
2017-03-23T04:59:10.460Z,22.38
2017-03-23T05:00:15.159Z,21.83
2017-03-23T05:01:20.739Z,22.12
2017-03-23T05:02:27.107Z,21.92
2017-03-23T05:03:32.897Z,22.95
2017-03-23T05:04:39.284Z,23.27
2017-03-23T05:05:44.105Z,23.75
2017-03-23T05:06:49.597Z,22.33
2017-03-23T05:07:55.744Z,22.58
2017-03-23T05:09:00.552Z,22.52
2017-03-23T05:10:06.236Z,23.08
2017-03-23T05:11:11.745Z,21.03
2017-03-23T05:12:17.384Z,20.43
2017-03-23T05:13:22.887Z,21.45
2017-03-23T05:14:27.808Z,21.70
2017-03-23T05:15:34.145Z,22.88
2017-03-23T05:16:38.937Z,21.57
2017-03-23T05:17:44.577Z,21.90
2017-03-23T05:18:50.037Z,22.05
2017-03-23T05:19:54.800Z,22.35
2017-03-23T05:21:00.276Z,21.17
2017-03-23T05:22:05.857Z,22.17
2017-03-23T05:23:11.496Z,21.55
2017-03-23T05:24:17.081Z,23.45
2017-03-23T05:25:22.040Z,22.90
2017-03-23T05:26:27.553Z,22.22
2017-03-23T05:27:32.649Z,23.00
2017-03-23T05:28:38.957Z,22.23
2017-03-23T05:29:43.975Z,23.03
2017-03-23T05:30:49.585Z,22.97
2017-03-23T05:31:55.179Z,23.38
2017-03-23T05:33:00.669Z,25.05
2017-03-23T05:34:07.025Z,22.32
2017-03-23T05:35:12.733Z,24.67
2017-03-23T05:36:18.365Z,22.30
2017-03-23T05:37:23.108Z,24.32
2017-03-23T05:38:28.569Z,22.48
2017-03-23T05:39:34.168Z,23.62
2017-03-23T05:40:39.636Z,25.60
2017-03-23T05:41:44.501Z,23.60
2017-03-23T05:42:50.012Z,24.12
2017-03-23T05:43:55.722Z,23.37
2017-03-23T05:45:01.225Z,24.67
2017-03-23T05:46:05.933Z,24.73
2017-03-23T05:47:11.569Z,25.13
2017-03-23T05:48:17.870Z,23.57
2017-03-23T05:49:23.367Z,24.90
2017-03-23T05:50:29.191Z,25.35
2017-03-23T05:51:33.895Z,24.95
2017-03-23T05:52:39.325Z,23.60
2017-03-23T05:53:44.973Z,26.35
2017-03-23T05:54:50.525Z,24.58
2017-03-23T05:55:56.141Z,26.08
2017-03-23T05:57:00.827Z,23.67
2017-03-23T05:58:06.452Z,25.77
2017-03-23T05:59:12.753Z,24.22
2017-03-23T06:00:18.451Z,24.47
2017-03-23T06:01:23.364Z,24.38
2017-03-23T06:02:28.902Z,25.08
2017-03-23T06:03:34.504Z,25.27
2017-03-23T06:04:40.038Z,26.32
2017-03-23T06:05:45.569Z,25.70
2017-03-23T06:06:51.245Z,24.48
2017-03-23T06:07:57.495Z,24.87
2017-03-23T06:09:02.416Z,27.03
2017-03-23T06:10:08.817Z,25.00
2017-03-23T06:11:15.214Z,25.07
2017-03-23T06:12:21.806Z,26.55
2017-03-23T06:13:26.677Z,25.47
2017-03-23T06:14:33.101Z,24.52
2017-03-23T06:15:37.990Z,24.63
2017-03-23T06:16:43.632Z,25.67
2017-03-23T06:17:49.334Z,23.93
2017-03-23T06:18:55.464Z,24.93
2017-03-23T06:20:01.048Z,24.65
2017-03-23T06:21:05.879Z,23.85
2017-03-23T06:22:11.474Z,25.40
2017-03-23T06:23:17.017Z,26.08
2017-03-23T06:24:22.705Z,25.32
2017-03-23T06:25:28.906Z,25.65
2017-03-23T06:26:33.693Z,25.33
2017-03-23T06:27:39.447Z,26.07
2017-03-23T06:28:45.611Z,24.20
2017-03-23T06:29:51.214Z,27.45
2017-03-23T06:30:56.260Z,25.27
2017-03-23T06:32:01.008Z,26.40
2017-03-23T06:33:06.476Z,25.98
2017-03-23T06:34:11.352Z,26.58
2017-03-23T06:35:16.911Z,27.10
2017-03-23T06:36:23.256Z,25.25
2017-03-23T06:37:29.013Z,26.37
2017-03-23T06:38:34.777Z,26.15
2017-03-23T06:39:40.444Z,25.50
2017-03-23T06:40:45.242Z,25.82
2017-03-23T06:41:50.936Z,24.47
2017-03-23T06:42:57.336Z,25.48
2017-03-23T06:44:02.221Z,25.95
2017-03-23T06:45:07.728Z,25.63
2017-03-23T06:46:13.401Z,24.50
2017-03-23T06:47:18.912Z,24.27
2017-03-23T06:48:23.794Z,24.82
2017-03-23T06:49:28.627Z,24.88
2017-03-23T06:50:34.124Z,23.00
2017-03-23T06:51:40.558Z,24.32
2017-03-23T06:52:46.146Z,24.07
2017-03-23T06:53:51.824Z,25.10
2017-03-23T06:54:57.492Z,23.18
2017-03-23T06:56:03.188Z,25.13
2017-03-23T06:57:08.169Z,25.02
2017-03-23T06:58:13.694Z,24.17
2017-03-23T06:59:19.276Z,24.87
2017-03-23T07:00:24.116Z,25.13
2017-03-23T07:01:30.589Z,25.17
2017-03-23T07:02:36.214Z,25.63
2017-03-23T07:03:41.769Z,23.97
2017-03-23T07:04:47.297Z,25.55
2017-03-23T07:05:52.135Z,24.60
2017-03-23T07:06:57.722Z,25.18
2017-03-23T07:08:03.859Z,24.33
2017-03-23T07:09:09.617Z,21.92
2017-03-23T07:10:15.489Z,24.93
2017-03-23T07:11:21.152Z,25.08
2017-03-23T07:12:27.796Z,24.22
2017-03-23T07:13:33.341Z,23.55
2017-03-23T07:14:39.045Z,24.42
2017-03-23T07:15:43.922Z,23.45
2017-03-23T07:16:49.608Z,23.00
2017-03-23T07:17:55.181Z,22.28
2017-03-23T07:19:01.557Z,24.80
2017-03-23T07:20:07.192Z,25.03
2017-03-23T07:21:12.869Z,23.88
2017-03-23T07:22:18.549Z,26.00
2017-03-23T07:23:23.469Z,24.50
2017-03-23T07:24:29.859Z,24.02
2017-03-23T07:25:34.647Z,26.53
2017-03-23T07:26:40.337Z,23.98
2017-03-23T07:27:45.161Z,23.32
2017-03-23T07:28:49.893Z,22.20
2017-03-23T07:29:55.496Z,23.85
2017-03-23T07:31:00.143Z,22.67
2017-03-23T07:32:06.530Z,21.78
2017-03-23T07:33:11.537Z,21.97
2017-03-23T07:34:17.062Z,22.08
2017-03-23T07:35:22.551Z,24.10
2017-03-23T07:36:27.441Z,22.58
2017-03-23T07:37:33.779Z,24.52
2017-03-23T07:38:39.342Z,21.65
2017-03-23T07:39:45.018Z,20.98
2017-03-23T07:40:50.605Z,22.43
2017-03-23T07:41:55.501Z,24.02
2017-03-23T07:43:01.745Z,22.50
2017-03-23T07:44:06.874Z,22.95
2017-03-23T07:45:12.536Z,23.73
2017-03-23T07:46:19.157Z,24.13
2017-03-23T07:47:25.428Z,24.73
2017-03-23T07:48:31.100Z,24.08
2017-03-23T07:49:35.873Z,22.82
2017-03-23T07:50:40.889Z,22.52
2017-03-23T07:51:47.125Z,21.87
2017-03-23T07:52:51.864Z,22.40
2017-03-23T07:53:58.234Z,22.22
2017-03-23T07:55:03.924Z,21.82
2017-03-23T07:56:09.481Z,21.60
2017-03-23T07:57:14.269Z,20.77
2017-03-23T07:58:20.823Z,21.38
2017-03-23T07:59:26.688Z,21.63
2017-03-23T08:00:31.568Z,21.02
2017-03-23T08:01:36.318Z,21.67
2017-03-23T08:02:46.832Z,21.90
2017-03-23T08:03:52.404Z,20.12
2017-03-23T08:04:58.016Z,21.63
2017-03-23T08:06:03.710Z,21.68
2017-03-23T08:07:10.233Z,22.78
2017-03-23T08:08:15.732Z,22.12
2017-03-23T08:09:21.458Z,21.42
2017-03-23T08:10:26.313Z,21.53
2017-03-23T08:11:31.885Z,21.18
2017-03-23T08:12:38.290Z,21.25
2017-03-23T08:13:43.860Z,22.92
2017-03-23T08:14:49.457Z,23.83
2017-03-23T08:15:54.205Z,21.83
2017-03-23T08:16:59.851Z,22.62
2017-03-23T08:18:05.522Z,20.75
2017-03-23T08:19:11.089Z,23.13
2017-03-23T08:20:17.589Z,22.35
2017-03-23T08:21:22.440Z,23.15
2017-03-23T08:22:28.177Z,22.13
2017-03-23T08:23:32.849Z,23.32
2017-03-23T08:24:41.113Z,22.98
2017-03-23T08:25:46.024Z,22.08
2017-03-23T08:26:52.426Z,23.22
2017-03-23T08:27:57.236Z,20.50
2017-03-23T08:29:03.653Z,22.08
2017-03-23T08:30:09.166Z,22.63
2017-03-23T08:31:14.780Z,23.63
2017-03-23T08:32:20.444Z,21.08
2017-03-23T08:33:25.293Z,21.55
2017-03-23T08:34:31.668Z,24.40
2017-03-23T08:35:36.388Z,21.65
2017-03-23T08:36:41.829Z,22.23
2017-03-23T08:37:47.472Z,28.57
2017-03-23T08:38:53.954Z,23.78
2017-03-23T08:39:59.374Z,23.18
2017-03-23T08:41:04.912Z,21.40
2017-03-23T08:42:10.516Z,21.27
2017-03-23T08:43:16.134Z,21.85
2017-03-23T08:44:21.025Z,26.33
2017-03-23T08:45:26.570Z,22.62
2017-03-23T08:46:32.925Z,20.92
2017-03-23T08:47:37.666Z,20.20
2017-03-23T08:48:43.853Z,19.47
2017-03-23T08:49:48.711Z,20.75
2017-03-23T08:50:54.362Z,21.37
2017-03-23T08:52:00.646Z,19.87
2017-03-23T08:53:06.221Z,22.67
2017-03-23T08:54:11.863Z,23.12
2017-03-23T08:55:16.742Z,23.02
2017-03-23T08:56:22.420Z,21.58
2017-03-23T08:57:28.078Z,21.58
2017-03-23T08:58:34.468Z,23.85
2017-03-23T08:59:39.257Z,22.82
2017-03-23T09:00:45.663Z,21.80
2017-03-23T09:01:50.405Z,23.23
2017-03-23T09:02:55.989Z,21.55
2017-03-23T09:04:02.281Z,19.97
2017-03-23T09:05:07.033Z,21.43
2017-03-23T09:06:11.734Z,20.52
2017-03-23T09:07:17.277Z,21.25
2017-03-23T09:08:22.919Z,20.45
2017-03-23T09:09:28.548Z,20.53
2017-03-23T09:10:34.143Z,20.23
2017-03-23T09:11:40.465Z,20.10
2017-03-23T09:12:45.945Z,21.60
2017-03-23T09:13:51.552Z,19.93
2017-03-23T09:14:57.274Z,21.30
2017-03-23T09:16:02.869Z,21.63
2017-03-23T09:17:08.529Z,22.75
2017-03-23T09:18:13.476Z,21.92
2017-03-23T09:19:19.830Z,20.90
2017-03-23T09:20:24.792Z,19.20
2017-03-23T09:21:30.268Z,20.85
2017-03-23T09:22:35.942Z,21.30
2017-03-23T09:23:41.444Z,20.05
2017-03-23T09:24:46.266Z,19.10
2017-03-23T09:25:51.677Z,20.23
2017-03-23T09:26:56.677Z,20.52
2017-03-23T09:28:02.997Z,17.72
2017-03-23T09:29:08.056Z,18.15
2017-03-23T09:30:14.272Z,19.25
2017-03-23T09:31:19.473Z,17.58
2017-03-23T09:32:25.529Z,18.75
2017-03-23T09:33:30.377Z,18.20
2017-03-23T09:34:35.187Z,19.07
2017-03-23T09:35:41.697Z,18.70
2017-03-23T09:36:46.476Z,17.83
2017-03-23T09:37:51.227Z,17.40
2017-03-23T09:38:57.596Z,17.45
2017-03-23T09:40:07.244Z,19.85
2017-03-23T09:41:12.082Z,18.75
2017-03-23T09:42:19.014Z,18.73
2017-03-23T09:43:24.141Z,20.63
2017-03-23T09:44:28.835Z,20.45
2017-03-23T09:45:34.357Z,18.85
2017-03-23T09:46:39.905Z,19.17
2017-03-23T09:47:44.557Z,18.12
2017-03-23T09:48:50.893Z,19.57
2017-03-23T09:49:56.273Z,19.30
2017-03-23T09:51:01.392Z,17.63
2017-03-23T09:52:07.837Z,18.93
2017-03-23T09:53:12.641Z,17.20
2017-03-23T09:54:19.064Z,19.43
2017-03-23T09:55:25.485Z,19.25
2017-03-23T09:56:31.048Z,20.30
2017-03-23T09:57:35.766Z,18.60
2017-03-23T09:58:41.188Z,20.33
2017-03-23T09:59:46.910Z,19.65
2017-03-23T10:00:52.612Z,20.33
2017-03-23T10:01:58.292Z,20.68
2017-03-23T10:03:03.816Z,20.48
2017-03-23T10:04:08.600Z,18.65
2017-03-23T10:05:14.901Z,19.35
2017-03-23T10:06:21.905Z,18.42
2017-03-23T10:07:27.529Z,17.27
2017-03-23T10:08:33.069Z,18.55
2017-03-23T10:09:38.692Z,18.00
2017-03-23T10:10:43.644Z,18.75
2017-03-23T10:11:49.968Z,19.20
2017-03-23T10:12:54.785Z,18.07
2017-03-23T10:14:00.349Z,16.78
2017-03-23T10:15:05.954Z,16.62
2017-03-23T10:16:11.988Z,15.72
2017-03-23T10:17:17.189Z,16.90
2017-03-23T10:18:22.925Z,17.85
2017-03-23T10:19:28.496Z,17.77
2017-03-23T10:20:34.108Z,17.42
2017-03-23T10:21:39.776Z,15.68
2017-03-23T10:22:45.382Z,17.12
2017-03-23T10:23:51.077Z,16.08
2017-03-23T10:24:55.860Z,15.78
2017-03-23T10:26:00.594Z,16.83
2017-03-23T10:27:06.184Z,16.58
2017-03-23T10:28:11.820Z,15.55
2017-03-23T10:29:18.194Z,15.93
2017-03-23T10:30:22.932Z,13.85
2017-03-23T10:31:29.305Z,15.75
2017-03-23T10:32:35.664Z,16.78
2017-03-23T10:33:41.508Z,16.55
2017-03-23T10:34:46.365Z,15.27
2017-03-23T10:35:51.930Z,16.43
2017-03-23T10:36:57.500Z,16.37
2017-03-23T10:38:02.213Z,15.53
2017-03-23T10:39:08.477Z,16.33
2017-03-23T10:40:15.249Z,16.42
2017-03-23T10:41:20.090Z,17.18
2017-03-23T10:42:25.624Z,14.92
2017-03-23T10:43:30.517Z,14.85
2017-03-23T10:44:36.052Z,13.85
2017-03-23T10:45:41.636Z,14.08
2017-03-23T10:46:46.482Z,15.02
2017-03-23T10:47:52.004Z,14.55
2017-03-23T10:48:57.477Z,15.30
2017-03-23T10:50:02.268Z,16.18
2017-03-23T10:51:08.757Z,16.60
2017-03-23T10:52:13.409Z,14.68
2017-03-23T10:53:18.181Z,16.10
2017-03-23T10:54:24.717Z,16.37
2017-03-23T10:55:30.206Z,16.25
2017-03-23T10:56:35.801Z,14.62
2017-03-23T10:57:40.513Z,14.32
2017-03-23T10:58:46.908Z,15.73
2017-03-23T10:59:52.588Z,13.97
2017-03-23T11:00:57.508Z,16.28
2017-03-23T11:02:03.192Z,15.50
2017-03-23T11:03:08.768Z,14.80
2017-03-23T11:04:15.039Z,16.33
2017-03-23T11:05:19.795Z,16.15
2017-03-23T11:06:26.180Z,16.43
2017-03-23T11:07:31.088Z,16.17
2017-03-23T11:08:37.224Z,16.38
2017-03-23T11:09:43.128Z,14.53
2017-03-23T11:10:47.920Z,14.62
2017-03-23T11:11:53.715Z,14.72
2017-03-23T11:12:59.989Z,14.05
2017-03-23T11:14:04.862Z,13.25
2017-03-23T11:15:10.294Z,13.95
2017-03-23T11:16:16.718Z,14.63
2017-03-23T11:17:21.638Z,15.17
2017-03-23T11:18:27.112Z,14.33
2017-03-23T11:19:33.586Z,14.97
2017-03-23T11:20:39.193Z,13.20
2017-03-23T11:21:44.743Z,14.63
2017-03-23T11:22:49.533Z,14.03
2017-03-23T11:23:55.596Z,12.70
2017-03-23T11:25:00.832Z,13.38
2017-03-23T11:26:07.194Z,12.60
2017-03-23T11:27:12.793Z,12.63
2017-03-23T11:28:18.560Z,12.68
2017-03-23T11:29:23.340Z,13.90
2017-03-23T11:30:29.028Z,12.23
2017-03-23T11:31:34.676Z,12.05
2017-03-23T11:32:40.213Z,11.15
2017-03-23T11:33:44.901Z,13.22
2017-03-23T11:34:50.559Z,12.67
2017-03-23T11:35:55.380Z,12.72
2017-03-23T11:37:01.001Z,12.10
2017-03-23T11:38:06.460Z,12.20
2017-03-23T11:39:11.172Z,11.93
2017-03-23T11:40:16.828Z,13.20
2017-03-23T11:41:22.416Z,12.97
2017-03-23T11:42:28.029Z,11.98
2017-03-23T11:43:33.664Z,11.88
2017-03-23T11:44:39.309Z,11.95
2017-03-23T11:45:44.148Z,12.93
2017-03-23T11:46:48.868Z,11.38
2017-03-23T11:47:54.412Z,11.50
2017-03-23T11:49:00.145Z,11.75
2017-03-23T11:50:05.821Z,12.37
2017-03-23T11:51:10.853Z,10.73
2017-03-23T11:52:16.461Z,10.43
2017-03-23T11:53:22.036Z,11.95
2017-03-23T11:54:27.741Z,11.97
2017-03-23T11:55:34.128Z,11.77
2017-03-23T11:56:38.952Z,12.35
2017-03-23T11:57:44.423Z,12.30
2017-03-23T11:58:49.956Z,10.65
2017-03-23T11:59:54.769Z,11.43
2017-03-23T12:01:00.277Z,11.15
2017-03-23T12:02:05.128Z,10.95
2017-03-23T12:03:10.754Z,10.63
2017-03-23T12:04:16.192Z,10.08
2017-03-23T12:05:21.738Z,12.42
2017-03-23T12:06:27.354Z,11.90
2017-03-23T12:07:32.245Z,11.45
2017-03-23T12:08:37.693Z,12.50
2017-03-23T12:09:42.613Z,11.20
2017-03-23T12:10:48.210Z,10.72
2017-03-23T12:11:53.792Z,10.62
2017-03-23T12:13:00.096Z,10.75
2017-03-23T12:14:05.780Z,11.53
2017-03-23T12:15:10.456Z,9.73
2017-03-23T12:16:15.893Z,10.17
2017-03-23T12:17:21.013Z,10.63
2017-03-23T12:18:27.217Z,11.15
2017-03-23T12:19:32.014Z,10.80
2017-03-23T12:20:37.672Z,10.43
2017-03-23T12:21:43.180Z,10.90
2017-03-23T12:22:49.492Z,10.53
2017-03-23T12:23:54.461Z,10.15
2017-03-23T12:25:00.105Z,10.18
2017-03-23T12:26:05.509Z,10.02
2017-03-23T12:27:11.879Z,9.55
2017-03-23T12:28:17.556Z,10.68
2017-03-23T12:29:22.429Z,11.18
2017-03-23T12:30:27.193Z,8.40
2017-03-23T12:31:33.373Z,9.50
2017-03-23T12:32:38.192Z,8.88
2017-03-23T12:33:43.830Z,9.20
2017-03-23T12:34:50.169Z,9.05
2017-03-23T12:35:55.166Z,8.33
2017-03-23T12:37:00.789Z,8.30
2017-03-23T12:38:06.301Z,7.65
2017-03-23T12:39:12.636Z,8.75
2017-03-23T12:40:17.629Z,7.97
2017-03-23T12:41:22.791Z,7.97
2017-03-23T12:42:28.032Z,7.05
2017-03-23T12:43:33.680Z,7.17
2017-03-23T12:44:39.222Z,6.93
2017-03-23T12:45:44.482Z,6.57
2017-03-23T12:46:49.613Z,6.78
2017-03-23T12:47:54.294Z,6.70
2017-03-23T12:48:59.789Z,7.52
2017-03-23T12:50:05.265Z,6.42
2017-03-23T12:51:10.917Z,6.82
2017-03-23T12:52:16.445Z,7.12
2017-03-23T12:53:22.076Z,7.12
2017-03-23T12:54:27.688Z,6.67
2017-03-23T12:55:33.269Z,9.38
2017-03-23T12:56:39.716Z,7.37
2017-03-23T12:57:44.533Z,7.03
2017-03-23T12:58:50.848Z,6.73
2017-03-23T12:59:56.405Z,6.52
2017-03-23T13:01:02.267Z,6.08
2017-03-23T13:02:07.037Z,6.85
2017-03-23T13:03:12.588Z,8.10
2017-03-23T13:04:17.251Z,6.85
2017-03-23T13:05:22.848Z,6.23
2017-03-23T13:06:28.457Z,7.13
2017-03-23T13:07:34.008Z,6.40
2017-03-23T13:08:39.754Z,6.98
2017-03-23T13:09:45.264Z,9.00
2017-03-23T13:10:50.916Z,7.30
2017-03-23T13:11:57.261Z,7.32
2017-03-23T13:13:03.832Z,6.33
2017-03-23T13:14:09.325Z,6.48
2017-03-23T13:15:14.180Z,6.95
2017-03-23T13:16:19.740Z,7.78
2017-03-23T13:17:25.320Z,6.57
2017-03-23T13:18:30.048Z,6.68
2017-03-23T13:19:35.442Z,6.70
2017-03-23T13:20:40.974Z,7.10
2017-03-23T13:21:46.615Z,7.23
2017-03-23T13:22:52.172Z,10.20
2017-03-23T13:23:56.937Z,7.18
2017-03-23T13:25:03.315Z,7.88
2017-03-23T13:26:08.874Z,8.18
2017-03-23T13:27:14.445Z,7.38
2017-03-23T13:28:20.065Z,7.25
2017-03-23T13:29:25.839Z,7.03
2017-03-23T13:30:31.422Z,6.72
2017-03-23T13:31:36.974Z,8.38
2017-03-23T13:32:42.628Z,7.90
2017-03-23T13:33:47.632Z,8.42
2017-03-23T13:34:54.059Z,7.87
2017-03-23T13:35:59.604Z,9.12
2017-03-23T13:37:04.546Z,9.72
2017-03-23T13:38:10.091Z,8.30
2017-03-23T13:39:15.734Z,9.25
2017-03-23T13:40:22.157Z,9.15
2017-03-23T13:41:27.716Z,9.20
2017-03-23T13:42:33.482Z,9.15
2017-03-23T13:43:38.885Z,9.48
2017-03-23T13:44:43.681Z,8.60
2017-03-23T13:45:49.244Z,10.35
2017-03-23T13:46:54.849Z,9.00
2017-03-23T13:48:00.472Z,8.88
2017-03-23T13:49:06.129Z,8.72
2017-03-23T13:50:12.405Z,9.22
2017-03-23T13:51:18.028Z,11.00
2017-03-23T13:52:23.562Z,9.90
2017-03-23T13:53:28.272Z,9.33
2017-03-23T13:54:33.761Z,9.17
2017-03-23T13:55:39.494Z,8.30
2017-03-23T13:56:45.197Z,9.30
2017-03-23T13:57:50.057Z,8.60
2017-03-23T13:58:55.609Z,7.32
2017-03-23T14:00:01.260Z,8.02
2017-03-23T14:01:06.140Z,7.43
2017-03-23T14:02:12.573Z,7.22
2017-03-23T14:03:18.169Z,7.97
2017-03-23T14:04:23.049Z,8.63
2017-03-23T14:05:29.433Z,8.53
2017-03-23T14:06:34.974Z,8.65
2017-03-23T14:07:40.639Z,8.77
2017-03-23T14:08:45.581Z,8.43